sensor_id;sensor_type;location;lat;lon;timestamp;temperature;humidity
12682;DHT22;6405;59.208;18.216;2024-01-06T00:02:16;-13.30;99.90
12682;DHT22;6405;59.208;18.216;2024-01-06T00:04:42;-13.30;99.90
12682;DHT22;6405;59.208;18.216;2024-01-06T00:07:07;-13.30;99.90
12682;DHT22;6405;59.208;18.216;2024-01-06T00:09:33;-13.40;99.90
12682;DHT22;6405;59.208;18.216;2024-01-06T00:11:59;-13.50;99.90
12682;DHT22;6405;59.208;18.216;2024-01-06T00:14:24;-13.60;99.90
12682;DHT22;6405;59.208;18.216;2024-01-06T00:16:50;-13.60;99.90
12682;DHT22;6405;59.208;18.216;2024-01-06T00:19:16;-13.70;99.90
12682;DHT22;6405;59.208;18.216;2024-01-06T00:21:43;-13.80;99.90
12682;DHT22;6405;59.208;18.216;2024-01-06T00:24:09;-13.90;99.90
12682;DHT22;6405;59.208;18.216;2024-01-06T00:26:34;-14.00;99.90
12682;DHT22;6405;59.208;18.216;2024-01-06T00:29:00;-14.00;99.90
12682;DHT22;6405;59.208;18.216;2024-01-06T00:31:26;-14.10;99.90
12682;DHT22;6405;59.208;18.216;2024-01-06T00:33:51;-14.10;99.90
12682;DHT22;6405;59.208;18.216;2024-01-06T00:36:17;-14.10;99.90
12682;DHT22;6405;59.208;18.216;2024-01-06T00:38:43;-14.20;99.90
12682;DHT22;6405;59.208;18.216;2024-01-06T00:41:08;-13.90;99.90
12682;DHT22;6405;59.208;18.216;2024-01-06T00:43:34;-14.20;99.90
12682;DHT22;6405;59.208;18.216;2024-01-06T00:46:00;-14.30;99.90
12682;DHT22;6405;59.208;18.216;2024-01-06T00:48:25;-14.30;99.90
12682;DHT22;6405;59.208;18.216;2024-01-06T00:50:51;-14.40;99.90
12682;DHT22;6405;59.208;18.216;2024-01-06T00:53:17;-14.40;99.90
12682;DHT22;6405;59.208;18.216;2024-01-06T00:55:42;-14.50;99.90
12682;DHT22;6405;59.208;18.216;2024-01-06T00:58:08;-14.50;99.90
12682;DHT22;6405;59.208;18.216;2024-01-06T01:00:34;-14.60;99.90
12682;DHT22;6405;59.208;18.216;2024-01-06T01:03:00;-14.60;99.90
12682;DHT22;6405;59.208;18.216;2024-01-06T01:05:25;-14.60;99.90
12682;DHT22;6405;59.208;18.216;2024-01-06T01:07:51;-14.70;99.90
12682;DHT22;6405;59.208;18.216;2024-01-06T01:10:17;-14.70;99.90
12682;DHT22;6405;59.208;18.216;2024-01-06T01:12:42;-14.70;99.90
12682;DHT22;6405;59.208;18.216;2024-01-06T01:15:08;-14.80;99.90
12682;DHT22;6405;59.208;18.216;2024-01-06T01:17:34;-14.70;99.90
12682;DHT22;6405;59.208;18.216;2024-01-06T01:20:00;-14.80;99.90
12682;DHT22;6405;59.208;18.216;2024-01-06T01:22:25;-14.80;99.90
12682;DHT22;6405;59.208;18.216;2024-01-06T01:24:51;-14.80;99.90
12682;DHT22;6405;59.208;18.216;2024-01-06T01:27:17;-14.90;99.90
12682;DHT22;6405;59.208;18.216;2024-01-06T01:29:42;-14.90;99.90
12682;DHT22;6405;59.208;18.216;2024-01-06T01:32:08;-14.90;99.90
12682;DHT22;6405;59.208;18.216;2024-01-06T01:34:34;-14.90;99.90
12682;DHT22;6405;59.208;18.216;2024-01-06T01:37:00;-15.00;99.90
12682;DHT22;6405;59.208;18.216;2024-01-06T01:39:25;-15.00;99.90
12682;DHT22;6405;59.208;18.216;2024-01-06T01:41:51;-15.00;99.90
12682;DHT22;6405;59.208;18.216;2024-01-06T01:44:17;-15.00;99.90
12682;DHT22;6405;59.208;18.216;2024-01-06T01:46:42;-15.00;99.90
12682;DHT22;6405;59.208;18.216;2024-01-06T01:49:08;-15.00;99.90
12682;DHT22;6405;59.208;18.216;2024-01-06T01:51:35;-15.10;99.90
12682;DHT22;6405;59.208;18.216;2024-01-06T01:54:05;-15.10;99.90
12682;DHT22;6405;59.208;18.216;2024-01-06T01:56:32;-15.10;99.90
12682;DHT22;6405;59.208;18.216;2024-01-06T01:59:04;-15.10;99.90
12682;DHT22;6405;59.208;18.216;2024-01-06T02:01:30;-15.20;99.90
12682;DHT22;6405;59.208;18.216;2024-01-06T02:03:57;-15.20;99.90
12682;DHT22;6405;59.208;18.216;2024-01-06T02:06:23;-15.20;99.90
12682;DHT22;6405;59.208;18.216;2024-01-06T02:08:48;-15.30;99.90
12682;DHT22;6405;59.208;18.216;2024-01-06T02:11:14;-15.30;99.90
12682;DHT22;6405;59.208;18.216;2024-01-06T02:13:40;-15.30;99.90
12682;DHT22;6405;59.208;18.216;2024-01-06T02:16:05;-15.30;99.90
12682;DHT22;6405;59.208;18.216;2024-01-06T02:18:32;-15.40;99.90
12682;DHT22;6405;59.208;18.216;2024-01-06T02:20:59;-15.40;99.90
12682;DHT22;6405;59.208;18.216;2024-01-06T02:23:26;-15.30;99.90
12682;DHT22;6405;59.208;18.216;2024-01-06T02:25:52;-15.30;99.90
12682;DHT22;6405;59.208;18.216;2024-01-06T02:28:18;-15.40;99.90
12682;DHT22;6405;59.208;18.216;2024-01-06T02:30:43;-15.30;99.90
12682;DHT22;6405;59.208;18.216;2024-01-06T02:33:09;-15.30;99.90
12682;DHT22;6405;59.208;18.216;2024-01-06T02:35:35;-15.30;99.90
12682;DHT22;6405;59.208;18.216;2024-01-06T02:38:01;-15.20;99.90
12682;DHT22;6405;59.208;18.216;2024-01-06T02:40:27;-15.10;99.90
12682;DHT22;6405;59.208;18.216;2024-01-06T02:42:53;-15.10;99.90
12682;DHT22;6405;59.208;18.216;2024-01-06T02:45:18;-15.10;99.90
12682;DHT22;6405;59.208;18.216;2024-01-06T02:47:44;-15.10;99.90
12682;DHT22;6405;59.208;18.216;2024-01-06T02:50:10;-15.10;99.90
12682;DHT22;6405;59.208;18.216;2024-01-06T02:52:36;-15.10;99.90
12682;DHT22;6405;59.208;18.216;2024-01-06T02:55:01;-15.10;99.90
12682;DHT22;6405;59.208;18.216;2024-01-06T02:57:29;-14.90;99.90
12682;DHT22;6405;59.208;18.216;2024-01-06T02:59:54;-15.00;99.90
12682;DHT22;6405;59.208;18.216;2024-01-06T03:02:20;-15.00;99.90
12682;DHT22;6405;59.208;18.216;2024-01-06T03:04:46;-14.90;99.90
12682;DHT22;6405;59.208;18.216;2024-01-06T03:07:11;-14.90;99.90
12682;DHT22;6405;59.208;18.216;2024-01-06T03:09:37;-14.80;99.90
12682;DHT22;6405;59.208;18.216;2024-01-06T03:12:07;-14.80;99.90
12682;DHT22;6405;59.208;18.216;2024-01-06T03:14:35;-14.80;99.90
12682;DHT22;6405;59.208;18.216;2024-01-06T03:17:01;-14.70;99.90
12682;DHT22;6405;59.208;18.216;2024-01-06T03:19:26;-14.60;99.90
12682;DHT22;6405;59.208;18.216;2024-01-06T03:21:53;-14.50;99.90
12682;DHT22;6405;59.208;18.216;2024-01-06T03:24:19;-14.50;99.90
12682;DHT22;6405;59.208;18.216;2024-01-06T03:26:45;-14.40;99.90
12682;DHT22;6405;59.208;18.216;2024-01-06T03:29:11;-14.20;99.90
12682;DHT22;6405;59.208;18.216;2024-01-06T03:31:37;-14.10;99.90
12682;DHT22;6405;59.208;18.216;2024-01-06T03:34:03;-14.00;99.90
12682;DHT22;6405;59.208;18.216;2024-01-06T03:36:28;-13.90;99.90
12682;DHT22;6405;59.208;18.216;2024-01-06T03:38:54;-13.90;99.90
12682;DHT22;6405;59.208;18.216;2024-01-06T03:41:20;-13.90;99.90
12682;DHT22;6405;59.208;18.216;2024-01-06T03:43:45;-13.90;99.90
12682;DHT22;6405;59.208;18.216;2024-01-06T03:46:11;-13.80;99.90
12682;DHT22;6405;59.208;18.216;2024-01-06T03:48:37;-13.80;99.90
12682;DHT22;6405;59.208;18.216;2024-01-06T03:51:03;-13.80;99.90
12682;DHT22;6405;59.208;18.216;2024-01-06T03:53:28;-13.80;99.90
12682;DHT22;6405;59.208;18.216;2024-01-06T03:55:54;-13.80;99.90
12682;DHT22;6405;59.208;18.216;2024-01-06T03:58:20;-13.70;99.90
12682;DHT22;6405;59.208;18.216;2024-01-06T04:00:45;-13.60;99.90
12682;DHT22;6405;59.208;18.216;2024-01-06T04:03:26;-13.60;99.90
12682;DHT22;6405;59.208;18.216;2024-01-06T04:05:52;-13.50;99.90
12682;DHT22;6405;59.208;18.216;2024-01-06T04:08:18;-13.50;99.90
12682;DHT22;6405;59.208;18.216;2024-01-06T04:10:44;-13.50;99.90
12682;DHT22;6405;59.208;18.216;2024-01-06T04:13:14;-13.50;99.90
12682;DHT22;6405;59.208;18.216;2024-01-06T04:15:40;-13.40;99.90
12682;DHT22;6405;59.208;18.216;2024-01-06T04:18:06;-13.40;99.90
12682;DHT22;6405;59.208;18.216;2024-01-06T04:20:32;-13.10;99.90
12682;DHT22;6405;59.208;18.216;2024-01-06T04:22:58;-13.30;99.90
12682;DHT22;6405;59.208;18.216;2024-01-06T04:25:24;-13.30;99.90
12682;DHT22;6405;59.208;18.216;2024-01-06T04:27:50;-13.20;99.90
12682;DHT22;6405;59.208;18.216;2024-01-06T04:30:16;-13.20;99.90
12682;DHT22;6405;59.208;18.216;2024-01-06T04:32:43;-13.20;99.90
12682;DHT22;6405;59.208;18.216;2024-01-06T04:35:09;-13.20;99.90
12682;DHT22;6405;59.208;18.216;2024-01-06T04:37:35;-13.20;99.90
12682;DHT22;6405;59.208;18.216;2024-01-06T04:40:01;-13.20;99.90
12682;DHT22;6405;59.208;18.216;2024-01-06T04:42:27;-13.20;99.90
12682;DHT22;6405;59.208;18.216;2024-01-06T04:44:52;-13.20;99.90
12682;DHT22;6405;59.208;18.216;2024-01-06T04:47:18;-13.20;99.90
12682;DHT22;6405;59.208;18.216;2024-01-06T04:49:44;-13.20;99.90
12682;DHT22;6405;59.208;18.216;2024-01-06T04:52:10;-13.30;99.90
12682;DHT22;6405;59.208;18.216;2024-01-06T04:54:36;-13.40;99.90
12682;DHT22;6405;59.208;18.216;2024-01-06T04:57:02;-13.50;99.90
12682;DHT22;6405;59.208;18.216;2024-01-06T04:59:27;-13.50;99.90
12682;DHT22;6405;59.208;18.216;2024-01-06T05:01:53;-13.50;99.90
12682;DHT22;6405;59.208;18.216;2024-01-06T05:04:19;-13.60;99.90
12682;DHT22;6405;59.208;18.216;2024-01-06T05:06:45;-13.60;99.90
12682;DHT22;6405;59.208;18.216;2024-01-06T05:09:11;-13.60;99.90
12682;DHT22;6405;59.208;18.216;2024-01-06T05:11:36;-13.70;99.90
12682;DHT22;6405;59.208;18.216;2024-01-06T05:14:02;-13.70;99.90
12682;DHT22;6405;59.208;18.216;2024-01-06T05:16:28;-13.80;99.90
12682;DHT22;6405;59.208;18.216;2024-01-06T05:18:54;-13.80;99.90
12682;DHT22;6405;59.208;18.216;2024-01-06T05:21:20;-13.80;99.90
12682;DHT22;6405;59.208;18.216;2024-01-06T05:23:46;-13.90;99.90
12682;DHT22;6405;59.208;18.216;2024-01-06T05:26:11;-13.80;99.90
12682;DHT22;6405;59.208;18.216;2024-01-06T05:28:39;-13.90;99.90
12682;DHT22;6405;59.208;18.216;2024-01-06T05:31:06;-14.00;99.90
12682;DHT22;6405;59.208;18.216;2024-01-06T05:33:31;-14.10;99.90
12682;DHT22;6405;59.208;18.216;2024-01-06T05:35:57;-14.10;99.90
12682;DHT22;6405;59.208;18.216;2024-01-06T05:38:23;-14.10;99.90
12682;DHT22;6405;59.208;18.216;2024-01-06T05:40:48;-14.10;99.90
12682;DHT22;6405;59.208;18.216;2024-01-06T05:43:14;-14.10;99.90
12682;DHT22;6405;59.208;18.216;2024-01-06T05:45:40;-14.10;99.90
12682;DHT22;6405;59.208;18.216;2024-01-06T05:48:10;-14.20;99.90
12682;DHT22;6405;59.208;18.216;2024-01-06T05:50:38;-14.10;99.90
12682;DHT22;6405;59.208;18.216;2024-01-06T05:53:05;-14.20;99.90
12682;DHT22;6405;59.208;18.216;2024-01-06T05:55:30;-14.20;99.90
12682;DHT22;6405;59.208;18.216;2024-01-06T05:57:56;-14.20;99.90
12682;DHT22;6405;59.208;18.216;2024-01-06T06:00:22;-14.10;99.90
12682;DHT22;6405;59.208;18.216;2024-01-06T06:02:48;-14.10;99.90
12682;DHT22;6405;59.208;18.216;2024-01-06T06:05:14;-14.10;99.90
12682;DHT22;6405;59.208;18.216;2024-01-06T06:07:40;-14.20;99.90
12682;DHT22;6405;59.208;18.216;2024-01-06T06:10:07;-14.20;99.90
12682;DHT22;6405;59.208;18.216;2024-01-06T06:12:34;-14.20;99.90
12682;DHT22;6405;59.208;18.216;2024-01-06T06:15:00;-14.00;99.90
12682;DHT22;6405;59.208;18.216;2024-01-06T06:17:26;-14.10;99.90
12682;DHT22;6405;59.208;18.216;2024-01-06T06:19:51;-14.10;99.90
12682;DHT22;6405;59.208;18.216;2024-01-06T06:22:17;-14.10;99.90
12682;DHT22;6405;59.208;18.216;2024-01-06T06:24:43;-14.00;99.90
12682;DHT22;6405;59.208;18.216;2024-01-06T06:27:09;-14.00;99.90
12682;DHT22;6405;59.208;18.216;2024-01-06T06:29:34;-13.90;99.90
12682;DHT22;6405;59.208;18.216;2024-01-06T06:32:00;-13.80;99.90
12682;DHT22;6405;59.208;18.216;2024-01-06T06:34:26;-13.80;99.90
12682;DHT22;6405;59.208;18.216;2024-01-06T06:36:51;-13.70;99.90
12682;DHT22;6405;59.208;18.216;2024-01-06T06:39:17;-13.70;99.90
12682;DHT22;6405;59.208;18.216;2024-01-06T06:41:44;-13.60;99.90
12682;DHT22;6405;59.208;18.216;2024-01-06T06:44:09;-13.60;99.90
12682;DHT22;6405;59.208;18.216;2024-01-06T06:46:36;-13.50;99.90
12682;DHT22;6405;59.208;18.216;2024-01-06T06:49:02;-13.40;99.90
12682;DHT22;6405;59.208;18.216;2024-01-06T06:51:28;-13.40;99.90
12682;DHT22;6405;59.208;18.216;2024-01-06T06:53:55;-13.30;99.90
12682;DHT22;6405;59.208;18.216;2024-01-06T06:56:22;-13.30;99.90
12682;DHT22;6405;59.208;18.216;2024-01-06T06:58:48;-13.30;99.90
12682;DHT22;6405;59.208;18.216;2024-01-06T07:01:16;-13.20;99.90
12682;DHT22;6405;59.208;18.216;2024-01-06T07:03:42;-13.10;99.90
12682;DHT22;6405;59.208;18.216;2024-01-06T07:06:08;-13.10;99.90
12682;DHT22;6405;59.208;18.216;2024-01-06T07:08:33;-13.10;99.90
12682;DHT22;6405;59.208;18.216;2024-01-06T07:10:59;-13.10;99.90
12682;DHT22;6405;59.208;18.216;2024-01-06T07:13:25;-13.10;99.90
12682;DHT22;6405;59.208;18.216;2024-01-06T07:15:52;-13.10;99.90
12682;DHT22;6405;59.208;18.216;2024-01-06T07:18:17;-13.10;99.90
12682;DHT22;6405;59.208;18.216;2024-01-06T07:20:48;-13.10;99.90
12682;DHT22;6405;59.208;18.216;2024-01-06T07:23:14;-13.10;99.90
12682;DHT22;6405;59.208;18.216;2024-01-06T07:25:40;-13.00;99.90
12682;DHT22;6405;59.208;18.216;2024-01-06T07:28:06;-13.00;99.90
12682;DHT22;6405;59.208;18.216;2024-01-06T07:30:34;-13.00;99.90
12682;DHT22;6405;59.208;18.216;2024-01-06T07:32:59;-13.00;99.90
12682;DHT22;6405;59.208;18.216;2024-01-06T07:35:25;-12.80;99.90
12682;DHT22;6405;59.208;18.216;2024-01-06T07:37:51;-12.80;99.90
12682;DHT22;6405;59.208;18.216;2024-01-06T07:40:17;-12.80;99.90
12682;DHT22;6405;59.208;18.216;2024-01-06T07:42:43;-12.70;99.90
12682;DHT22;6405;59.208;18.216;2024-01-06T07:45:09;-12.70;99.90
12682;DHT22;6405;59.208;18.216;2024-01-06T07:47:35;-12.70;99.90
12682;DHT22;6405;59.208;18.216;2024-01-06T07:50:02;-12.70;99.90
12682;DHT22;6405;59.208;18.216;2024-01-06T07:52:28;-12.70;99.90
12682;DHT22;6405;59.208;18.216;2024-01-06T07:54:54;-12.70;99.90
12682;DHT22;6405;59.208;18.216;2024-01-06T07:57:19;-12.70;99.90
12682;DHT22;6405;59.208;18.216;2024-01-06T07:59:45;-12.70;99.90
12682;DHT22;6405;59.208;18.216;2024-01-06T08:02:11;-12.70;99.90
12682;DHT22;6405;59.208;18.216;2024-01-06T08:04:37;-12.60;99.90
12682;DHT22;6405;59.208;18.216;2024-01-06T08:07:03;-12.60;99.90
12682;DHT22;6405;59.208;18.216;2024-01-06T08:09:28;-12.50;99.90
12682;DHT22;6405;59.208;18.216;2024-01-06T08:11:54;-12.50;99.90
12682;DHT22;6405;59.208;18.216;2024-01-06T08:14:20;-12.60;99.90
12682;DHT22;6405;59.208;18.216;2024-01-06T08:16:45;-12.50;99.90
12682;DHT22;6405;59.208;18.216;2024-01-06T08:19:11;-12.50;99.90
12682;DHT22;6405;59.208;18.216;2024-01-06T08:21:37;-12.50;99.90
12682;DHT22;6405;59.208;18.216;2024-01-06T08:24:03;-12.50;99.90
12682;DHT22;6405;59.208;18.216;2024-01-06T08:26:29;-12.50;99.90
12682;DHT22;6405;59.208;18.216;2024-01-06T08:28:54;-12.40;99.90
12682;DHT22;6405;59.208;18.216;2024-01-06T08:31:20;-12.40;99.90
12682;DHT22;6405;59.208;18.216;2024-01-06T08:33:47;-12.40;99.90
12682;DHT22;6405;59.208;18.216;2024-01-06T08:36:13;-12.30;99.90
12682;DHT22;6405;59.208;18.216;2024-01-06T08:38:38;-12.30;99.90
12682;DHT22;6405;59.208;18.216;2024-01-06T08:41:04;-12.20;99.90
12682;DHT22;6405;59.208;18.216;2024-01-06T08:43:30;-12.00;99.90
12682;DHT22;6405;59.208;18.216;2024-01-06T08:45:55;-11.90;99.90
12682;DHT22;6405;59.208;18.216;2024-01-06T08:48:21;-11.90;99.90
12682;DHT22;6405;59.208;18.216;2024-01-06T08:50:47;-11.80;99.90
12682;DHT22;6405;59.208;18.216;2024-01-06T08:53:14;-11.70;99.90
12682;DHT22;6405;59.208;18.216;2024-01-06T08:55:39;-11.60;99.90
12682;DHT22;6405;59.208;18.216;2024-01-06T08:58:05;-11.50;99.90
12682;DHT22;6405;59.208;18.216;2024-01-06T09:00:31;-11.50;99.90
12682;DHT22;6405;59.208;18.216;2024-01-06T09:02:56;-11.30;99.90
12682;DHT22;6405;59.208;18.216;2024-01-06T09:05:22;-11.10;99.90
12682;DHT22;6405;59.208;18.216;2024-01-06T09:07:48;-11.00;99.90
12682;DHT22;6405;59.208;18.216;2024-01-06T09:10:18;-10.90;99.90
12682;DHT22;6405;59.208;18.216;2024-01-06T09:12:44;-10.80;99.90
12682;DHT22;6405;59.208;18.216;2024-01-06T09:15:10;-10.70;99.90
12682;DHT22;6405;59.208;18.216;2024-01-06T09:17:36;-10.60;99.90
12682;DHT22;6405;59.208;18.216;2024-01-06T09:20:02;-10.60;99.90
12682;DHT22;6405;59.208;18.216;2024-01-06T09:22:28;-10.60;99.90
12682;DHT22;6405;59.208;18.216;2024-01-06T09:24:54;-10.50;99.90
12682;DHT22;6405;59.208;18.216;2024-01-06T09:27:20;-10.50;99.90
12682;DHT22;6405;59.208;18.216;2024-01-06T09:29:46;-10.40;99.90
12682;DHT22;6405;59.208;18.216;2024-01-06T09:32:12;-10.30;99.90
12682;DHT22;6405;59.208;18.216;2024-01-06T09:34:38;-10.30;99.90
12682;DHT22;6405;59.208;18.216;2024-01-06T09:37:04;-10.20;99.90
12682;DHT22;6405;59.208;18.216;2024-01-06T09:39:30;-10.10;99.90
12682;DHT22;6405;59.208;18.216;2024-01-06T09:41:57;-10.10;99.90
12682;DHT22;6405;59.208;18.216;2024-01-06T09:44:23;-10.00;99.90
12682;DHT22;6405;59.208;18.216;2024-01-06T09:46:50;-9.90;99.90
12682;DHT22;6405;59.208;18.216;2024-01-06T09:49:18;-9.90;99.90
12682;DHT22;6405;59.208;18.216;2024-01-06T09:51:49;-9.80;99.90
12682;DHT22;6405;59.208;18.216;2024-01-06T09:54:23;-9.80;99.90
12682;DHT22;6405;59.208;18.216;2024-01-06T09:56:51;-9.70;99.90
12682;DHT22;6405;59.208;18.216;2024-01-06T09:59:18;-9.70;99.90
12682;DHT22;6405;59.208;18.216;2024-01-06T10:01:45;-9.60;99.90
12682;DHT22;6405;59.208;18.216;2024-01-06T10:04:11;-9.60;99.90
12682;DHT22;6405;59.208;18.216;2024-01-06T10:06:36;-9.60;99.90
12682;DHT22;6405;59.208;18.216;2024-01-06T10:09:02;-9.70;99.90
12682;DHT22;6405;59.208;18.216;2024-01-06T10:11:30;-9.60;99.90
12682;DHT22;6405;59.208;18.216;2024-01-06T10:13:56;-9.70;99.90
12682;DHT22;6405;59.208;18.216;2024-01-06T10:16:22;-9.70;99.90
12682;DHT22;6405;59.208;18.216;2024-01-06T10:18:48;-9.70;99.90
12682;DHT22;6405;59.208;18.216;2024-01-06T10:21:13;-9.70;99.90
12682;DHT22;6405;59.208;18.216;2024-01-06T10:23:43;-9.70;99.90
12682;DHT22;6405;59.208;18.216;2024-01-06T10:26:12;-9.70;99.90
12682;DHT22;6405;59.208;18.216;2024-01-06T10:28:38;-9.70;99.90
12682;DHT22;6405;59.208;18.216;2024-01-06T10:31:04;-9.70;99.90
12682;DHT22;6405;59.208;18.216;2024-01-06T10:33:32;-9.70;99.90
12682;DHT22;6405;59.208;18.216;2024-01-06T10:36:00;-9.70;99.90
12682;DHT22;6405;59.208;18.216;2024-01-06T10:38:26;-9.70;99.90
12682;DHT22;6405;59.208;18.216;2024-01-06T10:40:59;-9.70;99.90
12682;DHT22;6405;59.208;18.216;2024-01-06T10:43:26;-9.60;99.90
12682;DHT22;6405;59.208;18.216;2024-01-06T10:45:56;-9.60;99.90
12682;DHT22;6405;59.208;18.216;2024-01-06T10:48:26;-9.70;99.90
12682;DHT22;6405;59.208;18.216;2024-01-06T10:50:55;-9.70;99.90
12682;DHT22;6405;59.208;18.216;2024-01-06T10:53:21;-9.70;99.90
12682;DHT22;6405;59.208;18.216;2024-01-06T10:55:49;-9.60;99.90
12682;DHT22;6405;59.208;18.216;2024-01-06T10:58:17;-9.60;99.90
12682;DHT22;6405;59.208;18.216;2024-01-06T11:00:43;-9.60;99.90
12682;DHT22;6405;59.208;18.216;2024-01-06T11:03:09;-9.60;99.90
12682;DHT22;6405;59.208;18.216;2024-01-06T11:05:37;-9.50;99.90
12682;DHT22;6405;59.208;18.216;2024-01-06T11:08:04;-9.40;99.90
12682;DHT22;6405;59.208;18.216;2024-01-06T11:10:31;-9.60;99.90
12682;DHT22;6405;59.208;18.216;2024-01-06T11:13:15;-9.60;99.90
12682;DHT22;6405;59.208;18.216;2024-01-06T11:15:50;-9.60;99.90
12682;DHT22;6405;59.208;18.216;2024-01-06T11:18:36;-9.60;99.90
12682;DHT22;6405;59.208;18.216;2024-01-06T11:21:21;-9.50;99.90
12682;DHT22;6405;59.208;18.216;2024-01-06T11:26:32;-9.50;99.90
12682;DHT22;6405;59.208;18.216;2024-01-06T11:28:58;-9.50;99.90
12682;DHT22;6405;59.208;18.216;2024-01-06T11:31:32;-9.40;99.90
12682;DHT22;6405;59.208;18.216;2024-01-06T11:34:12;-9.40;99.90
12682;DHT22;6405;59.208;18.216;2024-01-06T11:36:38;-9.40;99.90
12682;DHT22;6405;59.208;18.216;2024-01-06T11:39:05;-9.40;99.90
12682;DHT22;6405;59.208;18.216;2024-01-06T11:41:51;-9.40;99.90
12682;DHT22;6405;59.208;18.216;2024-01-06T11:44:23;-9.40;99.90
12682;DHT22;6405;59.208;18.216;2024-01-06T11:46:49;-9.40;99.90
12682;DHT22;6405;59.208;18.216;2024-01-06T11:49:16;-9.40;99.90
12682;DHT22;6405;59.208;18.216;2024-01-06T11:51:41;-9.30;99.90
12682;DHT22;6405;59.208;18.216;2024-01-06T11:54:09;-9.30;99.90
12682;DHT22;6405;59.208;18.216;2024-01-06T11:56:35;-9.20;99.90
12682;DHT22;6405;59.208;18.216;2024-01-06T11:59:01;-9.20;99.90
12682;DHT22;6405;59.208;18.216;2024-01-06T12:01:27;-9.10;99.90
12682;DHT22;6405;59.208;18.216;2024-01-06T12:03:55;-9.00;99.90
12682;DHT22;6405;59.208;18.216;2024-01-06T12:06:22;-9.00;99.90
12682;DHT22;6405;59.208;18.216;2024-01-06T12:08:48;-9.00;99.90
12682;DHT22;6405;59.208;18.216;2024-01-06T12:11:17;-9.10;99.90
12682;DHT22;6405;59.208;18.216;2024-01-06T12:13:44;-9.10;99.90
12682;DHT22;6405;59.208;18.216;2024-01-06T12:16:10;-9.10;99.90
12682;DHT22;6405;59.208;18.216;2024-01-06T12:18:36;-9.10;99.90
12682;DHT22;6405;59.208;18.216;2024-01-06T12:21:02;-9.20;99.90
12682;DHT22;6405;59.208;18.216;2024-01-06T12:23:28;-9.20;99.90
12682;DHT22;6405;59.208;18.216;2024-01-06T12:25:57;-9.30;99.90
12682;DHT22;6405;59.208;18.216;2024-01-06T12:28:22;-9.20;99.90
12682;DHT22;6405;59.208;18.216;2024-01-06T12:30:48;-9.20;99.90
12682;DHT22;6405;59.208;18.216;2024-01-06T12:33:14;-9.00;99.90
12682;DHT22;6405;59.208;18.216;2024-01-06T12:35:40;-9.00;99.90
12682;DHT22;6405;59.208;18.216;2024-01-06T12:38:08;-9.00;99.90
12682;DHT22;6405;59.208;18.216;2024-01-06T12:40:36;-8.80;99.90
12682;DHT22;6405;59.208;18.216;2024-01-06T12:43:06;-8.80;99.90
12682;DHT22;6405;59.208;18.216;2024-01-06T12:45:32;-8.80;99.90
12682;DHT22;6405;59.208;18.216;2024-01-06T12:47:58;-8.90;99.90
12682;DHT22;6405;59.208;18.216;2024-01-06T12:50:23;-8.90;99.90
12682;DHT22;6405;59.208;18.216;2024-01-06T12:52:49;-8.80;99.90
12682;DHT22;6405;59.208;18.216;2024-01-06T12:55:15;-8.90;99.90
12682;DHT22;6405;59.208;18.216;2024-01-06T12:57:42;-8.90;99.90
12682;DHT22;6405;59.208;18.216;2024-01-06T13:00:08;-8.90;99.90
12682;DHT22;6405;59.208;18.216;2024-01-06T13:02:36;-8.90;99.90
12682;DHT22;6405;59.208;18.216;2024-01-06T13:05:03;-8.80;99.90
12682;DHT22;6405;59.208;18.216;2024-01-06T13:07:29;-8.80;99.90
12682;DHT22;6405;59.208;18.216;2024-01-06T13:09:55;-8.80;99.90
12682;DHT22;6405;59.208;18.216;2024-01-06T13:12:21;-8.80;99.90
12682;DHT22;6405;59.208;18.216;2024-01-06T13:14:49;-8.80;99.90
12682;DHT22;6405;59.208;18.216;2024-01-06T13:17:16;-8.80;99.90
12682;DHT22;6405;59.208;18.216;2024-01-06T13:19:42;-8.80;99.90
12682;DHT22;6405;59.208;18.216;2024-01-06T13:22:08;-8.70;99.90
12682;DHT22;6405;59.208;18.216;2024-01-06T13:24:33;-8.70;99.90
12682;DHT22;6405;59.208;18.216;2024-01-06T13:26:59;-8.70;99.90
12682;DHT22;6405;59.208;18.216;2024-01-06T13:29:28;-8.70;99.90
12682;DHT22;6405;59.208;18.216;2024-01-06T13:31:54;-8.80;99.90
12682;DHT22;6405;59.208;18.216;2024-01-06T13:34:20;-8.80;99.90
12682;DHT22;6405;59.208;18.216;2024-01-06T13:36:46;-8.80;99.90
12682;DHT22;6405;59.208;18.216;2024-01-06T13:39:11;-8.80;99.90
12682;DHT22;6405;59.208;18.216;2024-01-06T13:41:46;-8.80;99.90
12682;DHT22;6405;59.208;18.216;2024-01-06T13:44:13;-8.80;99.90
12682;DHT22;6405;59.208;18.216;2024-01-06T13:46:39;-8.80;99.90
12682;DHT22;6405;59.208;18.216;2024-01-06T13:49:13;-8.80;99.90
12682;DHT22;6405;59.208;18.216;2024-01-06T13:51:41;-8.80;99.90
12682;DHT22;6405;59.208;18.216;2024-01-06T13:54:06;-8.80;99.90
12682;DHT22;6405;59.208;18.216;2024-01-06T13:56:33;-8.80;99.90
12682;DHT22;6405;59.208;18.216;2024-01-06T13:58:58;-8.80;99.90
12682;DHT22;6405;59.208;18.216;2024-01-06T14:01:24;-8.80;99.90
12682;DHT22;6405;59.208;18.216;2024-01-06T14:03:50;-8.80;99.90
12682;DHT22;6405;59.208;18.216;2024-01-06T14:06:16;-8.80;99.90
12682;DHT22;6405;59.208;18.216;2024-01-06T14:08:43;-8.90;99.90
12682;DHT22;6405;59.208;18.216;2024-01-06T14:11:09;-8.80;99.90
12682;DHT22;6405;59.208;18.216;2024-01-06T14:13:35;-8.90;99.90
12682;DHT22;6405;59.208;18.216;2024-01-06T14:16:00;-8.90;99.90
12682;DHT22;6405;59.208;18.216;2024-01-06T14:18:26;-9.00;99.90
12682;DHT22;6405;59.208;18.216;2024-01-06T14:20:53;-9.00;99.90
12682;DHT22;6405;59.208;18.216;2024-01-06T14:23:21;-9.00;99.90
12682;DHT22;6405;59.208;18.216;2024-01-06T14:25:47;-9.00;99.90
12682;DHT22;6405;59.208;18.216;2024-01-06T14:28:12;-9.00;99.90
12682;DHT22;6405;59.208;18.216;2024-01-06T14:30:38;-9.00;99.90
12682;DHT22;6405;59.208;18.216;2024-01-06T14:33:04;-9.10;99.90
12682;DHT22;6405;59.208;18.216;2024-01-06T14:35:30;-9.10;99.90
12682;DHT22;6405;59.208;18.216;2024-01-06T14:37:55;-9.10;99.90
12682;DHT22;6405;59.208;18.216;2024-01-06T14:40:22;-9.10;99.90
12682;DHT22;6405;59.208;18.216;2024-01-06T14:42:48;-9.10;99.90
12682;DHT22;6405;59.208;18.216;2024-01-06T14:45:14;-9.10;99.90
12682;DHT22;6405;59.208;18.216;2024-01-06T14:47:39;-8.80;99.90
12682;DHT22;6405;59.208;18.216;2024-01-06T14:50:06;-9.00;99.90
12682;DHT22;6405;59.208;18.216;2024-01-06T14:52:32;-9.00;99.90
12682;DHT22;6405;59.208;18.216;2024-01-06T14:54:58;-9.00;99.90
12682;DHT22;6405;59.208;18.216;2024-01-06T14:57:24;-9.00;99.90
12682;DHT22;6405;59.208;18.216;2024-01-06T14:59:50;-9.00;99.90
12682;DHT22;6405;59.208;18.216;2024-01-06T15:02:15;-9.00;99.90
12682;DHT22;6405;59.208;18.216;2024-01-06T15:04:41;-9.00;99.90
12682;DHT22;6405;59.208;18.216;2024-01-06T15:07:07;-8.90;99.90
12682;DHT22;6405;59.208;18.216;2024-01-06T15:09:33;-9.00;99.90
12682;DHT22;6405;59.208;18.216;2024-01-06T15:11:59;-9.00;99.90
12682;DHT22;6405;59.208;18.216;2024-01-06T15:14:24;-9.00;99.90
12682;DHT22;6405;59.208;18.216;2024-01-06T15:16:50;-9.00;99.90
12682;DHT22;6405;59.208;18.216;2024-01-06T15:19:16;-8.90;99.90
12682;DHT22;6405;59.208;18.216;2024-01-06T15:21:42;-8.90;99.90